Time;durP1;ratioP1;P1;durP2;ratioP2;P2;SDS_P1;SDS_P2;PMS_P1;PMS_P2;Temp;Humidity;BMP_temperature;BMP_pressure;BME280_temperature;BME280_humidity;BME280_pressure;Samples;Min_cycle;Max_cycle;Signal;HPM_P1;HPM_P2
2022/05/16 00:01:26;;;;;;;1955.57;999.90;;;;;;;16.66;62.48;101284.25;5015134;28;102279;-84
2022/05/16 00:03:52;;;;;;;1793.30;999.90;;;;;;;16.66;62.64;101294.38;4999878;28;102437;-84
2022/05/16 00:06:19;;;;;;;1931.65;999.90;;;;;;;16.65;63.01;101290.81;5000223;28;102446;-84
2022/05/16 00:08:45;;;;;;;1711.65;999.90;;;;;;;16.64;62.53;101302.94;4999403;28;103949;-84
2022/05/16 00:11:13;;;;;;;1839.60;999.90;;;;;;;16.66;62.94;101305.38;5002193;28;102045;-84
2022/05/16 00:13:40;;;;;;;1854.20;999.90;;;;;;;16.66;62.83;101316.38;5016825;28;102596;-84
2022/05/16 00:16:07;;;;;;;1725.70;999.90;;;;;;;16.65;62.47;101318.31;5019622;28;102610;-84
2022/05/16 00:18:33;;;;;;;1916.28;999.90;;;;;;;16.66;62.83;101316.38;5003467;28;103932;-84
2022/05/16 00:21:00;;;;;;;1830.68;999.90;;;;;;;16.65;62.77;101317.50;5002005;28;102143;-84
2022/05/16 00:23:27;;;;;;;1791.95;999.90;;;;;;;16.66;63.08;101321.88;5012554;28;102349;-84
2022/05/16 00:25:54;;;;;;;1976.63;999.90;;;;;;;16.65;63.07;101310.06;5011664;28;102155;-84
2022/05/16 00:28:22;;;;;;;1825.55;999.90;;;;;;;16.67;62.90;101315.28;5005624;28;103927;-85
2022/05/16 00:30:48;;;;;;;1889.47;999.90;;;;;;;16.65;62.68;101304.56;5004028;28;102404;-83
2022/05/16 00:33:15;;;;;;;1845.57;999.90;;;;;;;16.65;63.01;101314.75;5000085;28;102382;-84
2022/05/16 00:35:41;;;;;;;1676.72;999.90;;;;;;;16.65;62.73;101312.00;5000077;28;102525;-84
2022/05/16 00:38:08;;;;;;;1483.18;999.90;;;;;;;16.64;63.07;101313.13;4995638;28;103747;-84
2022/05/16 00:40:34;;;;;;;1614.38;999.90;;;;;;;16.65;62.98;101314.75;5000889;28;102730;-84
2022/05/16 00:43:02;;;;;;;1617.22;999.90;;;;;;;16.64;63.31;101302.13;4995159;28;102078;-84
2022/05/16 00:45:30;;;;;;;1711.97;999.90;;;;;;;16.63;63.02;101304.06;5012640;28;103874;-85
2022/05/16 00:47:57;;;;;;;1579.63;999.90;;;;;;;16.64;63.12;101308.44;5008315;28;103921;-85
2022/05/16 00:50:26;;;;;;;1659.63;999.90;;;;;;;16.64;63.32;101302.94;5007179;28;102185;-85
2022/05/16 00:52:54;;;;;;;1547.70;999.90;;;;;;;16.64;62.97;101313.13;4998339;28;102032;-85
2022/05/16 00:55:25;;;;;;;1570.78;999.90;;;;;;;16.63;62.82;101303.25;5015159;28;102247;-85
2022/05/16 00:57:54;;;;;;;1580.25;999.90;;;;;;;16.64;62.79;101302.13;5012044;28;104037;-85
2022/05/16 01:00:24;;;;;;;1595.47;999.90;;;;;;;16.64;62.95;101302.94;5006068;28;102144;-85
2022/05/16 01:05:40;;;;;;;1561.47;999.90;;;;;;;16.63;62.78;101312.31;4996491;28;102725;-85
2022/05/16 01:08:10;;;;;;;1587.97;999.90;;;;;;;16.63;62.89;101311.50;4999403;28;103928;-85
2022/05/16 01:10:36;;;;;;;1505.25;999.90;;;;;;;16.64;63.05;101313.13;5014139;28;102622;-85
2022/05/16 01:13:04;;;;;;;1616.22;999.90;;;;;;;16.62;62.83;101305.16;5013280;28;102399;-85
2022/05/16 01:15:33;;;;;;;1602.05;999.90;;;;;;;16.63;62.48;101306.00;4998665;28;102232;-85
2022/05/16 01:18:02;;;;;;;1597.60;999.90;;;;;;;16.63;63.28;101314.25;5013784;28;104187;-85
2022/05/16 01:20:42;;;;;;;1543.90;999.90;;;;;;;16.62;62.70;101298.84;5006088;28;101909;-85
2022/05/16 01:23:14;;;;;;;1493.25;999.90;;;;;;;16.63;62.99;101311.50;5004335;28;102342;-84
2022/05/16 01:25:40;;;;;;;1560.13;999.90;;;;;;;16.62;62.63;101301.59;5011144;28;102161;-84
2022/05/16 01:28:07;;;;;;;1536.45;999.90;;;;;;;16.62;62.57;101290.59;5010639;28;103925;-85
2022/05/16 01:30:36;;;;;;;1574.10;999.90;;;;;;;16.62;62.56;101293.34;4995267;28;102424;-85
2022/05/16 01:33:03;;;;;;;1484.78;999.90;;;;;;;16.62;62.96;101293.34;5010361;28;103797;-84
2022/05/16 01:35:31;;;;;;;1556.88;999.90;;;;;;;16.62;62.55;101299.66;4999000;28;102503;-84
2022/05/16 01:40:45;;;;;;;1477.55;999.90;;;;;;;16.62;62.77;101299.66;5001004;28;101984;-84
2022/05/16 01:43:12;;;;;;;1756.60;999.90;;;;;;;16.61;62.81;101294.47;5012964;28;102687;-85
2022/05/16 01:45:41;;;;;;;1576.80;999.90;;;;;;;16.63;63.06;101300.50;4996284;28;102169;-85
2022/05/16 01:48:09;;;;;;;1521.15;999.90;;;;;;;16.61;62.98;101308.22;5010603;28;104042;-84
2022/05/16 01:50:36;;;;;;;1550.78;999.90;;;;;;;16.61;63.02;101303.53;4994209;28;102454;-84
2022/05/16 01:53:02;;;;;;;1605.60;999.90;;;;;;;16.62;62.77;101309.84;4993612;28;102628;-85
2022/05/16 01:55:31;;;;;;;1623.10;999.90;;;;;;;16.61;62.68;101306.28;4998649;28;102136;-85
2022/05/16 01:58:00;;;;;;;1628.67;999.90;;;;;;;16.60;62.78;101307.41;4993601;28;103866;-85
2022/05/16 02:00:26;;;;;;;;;;;;;;;16.61;63.04;101308.22;4992788;28;102466;-84
2022/05/16 02:02:53;;;;;;;1334.15;999.90;;;;;;;16.61;62.67;101308.22;4992609;28;101973;-84
2022/05/16 02:05:22;;;;;;;1409.38;999.90;;;;;;;16.61;62.74;101310.97;4999437;28;102562;-84
2022/05/16 02:07:50;;;;;;;1433.45;999.90;;;;;;;16.60;63.01;101307.41;4999547;28;103918;-84
2022/05/16 02:10:18;;;;;;;1553.70;999.90;;;;;;;16.60;62.72;101306.59;4992665;28;102534;-84
2022/05/16 02:12:45;;;;;;;1424.77;999.90;;;;;;;16.60;62.97;101306.59;5002432;28;102485;-84
2022/05/16 02:15:15;;;;;;;1515.25;999.90;;;;;;;16.60;63.10;101306.59;5005534;28;102678;-84
2022/05/16 02:17:42;;;;;;;1483.07;999.90;;;;;;;16.60;62.74;101312.09;5006336;28;104418;-84
2022/05/16 02:20:10;;;;;;;1420.45;999.90;;;;;;;16.60;62.81;101314.84;5001064;28;102513;-84
2022/05/16 02:25:21;;;;;;;1497.68;999.90;;;;;;;16.60;63.37;101328.56;5003819;28;102737;-84
2022/05/16 02:27:48;;;;;;;1567.85;999.90;;;;;;;16.59;63.20;101330.50;5001942;28;103952;-84
2022/05/16 02:30:17;;;;;;;1584.28;999.90;;;;;;;16.59;62.61;101327.75;5007376;28;102612;-84
2022/05/16 02:32:44;;;;;;;1601.50;999.90;;;;;;;16.58;62.87;101337.91;4998305;28;102968;-85
2022/05/16 02:35:10;;;;;;;1726.82;999.90;;;;;;;16.57;63.16;101330.78;5009929;28;102475;-84
2022/05/16 02:37:36;;;;;;;1603.68;999.90;;;;;;;16.58;62.88;101331.59;4993546;28;103962;-84
2022/05/16 02:40:04;;;;;;;1610.53;999.90;;;;;;;16.60;62.93;101336.81;5008173;28;101920;-84
2022/05/16 02:42:30;;;;;;;1566.78;999.90;;;;;;;16.57;62.83;101336.28;5001105;28;102073;-84
2022/05/16 02:44:57;;;;;;;1690.00;999.90;;;;;;;16.60;62.88;101347.81;5011027;28;102377;-84
2022/05/16 02:47:25;;;;;;;1704.30;999.90;;;;;;;16.57;63.10;101347.28;5006633;28;103898;-84
2022/05/16 02:49:51;;;;;;;1610.17;999.90;;;;;;;16.58;62.74;101348.91;5009405;28;102188;-84
2022/05/16 02:52:18;;;;;;;1690.40;999.90;;;;;;;16.58;63.07;101354.41;4993439;28;102146;-84
2022/05/16 02:54:45;;;;;;;1625.10;999.90;;;;;;;16.58;62.77;101359.91;5009252;28;102500;-84
2022/05/16 02:57:12;;;;;;;1644.68;999.90;;;;;;;16.57;62.82;101352.78;4997812;28;103811;-84
2022/05/16 02:59:38;;;;;;;1723.18;999.90;;;;;;;16.57;62.81;101354.72;4995341;28;102079;-84
2022/05/16 03:02:09;;;;;;;1663.13;999.90;;;;;;;16.57;62.36;101357.47;5011604;28;102518;-84
2022/05/16 03:04:38;;;;;;;1575.63;999.90;;;;;;;16.57;62.86;101357.47;5013978;28;101944;-85
2022/05/16 03:07:05;;;;;;;1738.35;999.90;;;;;;;16.56;62.76;101351.16;5000135;28;104514;-84
2022/05/16 03:09:33;;;;;;;1561.22;999.90;;;;;;;16.56;62.59;101356.66;4993228;28;102626;-84
2022/05/16 03:11:59;;;;;;;1730.60;999.90;;;;;;;16.57;62.67;101354.72;4994459;28;102141;-84
2022/05/16 03:14:26;;;;;;;1710.97;999.90;;;;;;;16.56;62.34;101362.13;5013790;28;102700;-84
2022/05/16 03:16:53;;;;;;;1596.65;999.90;;;;;;;16.58;62.53;101359.09;5006761;28;103715;-85
2022/05/16 03:19:20;;;;;;;1591.90;999.90;;;;;;;16.58;62.34;101370.88;5004695;28;102176;-85
2022/05/16 03:21:48;;;;;;;1629.45;999.90;;;;;;;16.57;62.96;101363.75;5012345;28;102012;-85
2022/05/16 03:24:14;;;;;;;1551.18;999.90;;;;;;;16.58;63.07;101368.13;5013402;28;102263;-85
2022/05/16 03:26:41;;;;;;;1560.10;999.90;;;;;;;16.60;62.60;101372.53;5010701;28;105080;-84
2022/05/16 03:29:11;;;;;;;1576.70;999.90;;;;;;;16.60;62.33;101367.03;5011786;28;102155;-83
2022/05/16 03:31:39;;;;;;;1697.00;999.90;;;;;;;16.60;62.68;101376.09;5005059;28;102893;-86
2022/05/16 03:34:07;;;;;;;1577.57;999.90;;;;;;;16.62;62.75;101370.31;5004809;28;102170;-86
2022/05/16 03:36:34;;;;;;;1730.77;999.90;;;;;;;16.61;62.50;101379.66;5007996;28;103801;-86
2022/05/16 03:41:47;;;;;;;1515.65;999.90;;;;;;;16.63;62.72;101371.97;4995307;28;102204;-86
2022/05/16 03:44:13;;;;;;;1696.43;999.90;;;;;;;16.61;63.15;101366.75;4994571;28;102037;-86
2022/05/16 03:46:40;;;;;;;1814.95;999.90;;;;;;;16.64;63.34;101365.34;4994541;28;103560;-85
2022/05/16 03:49:06;;;;;;;1620.60;999.90;;;;;;;16.64;63.69;101362.59;5004523;28;102282;-85
2022/05/16 03:51:33;;;;;;;1799.18;999.90;;;;;;;16.65;63.29;101364.22;4996436;28;103774;-84
2022/05/16 03:54:01;;;;;;;1668.10;999.90;;;;;;;16.65;63.62;101365.03;5014319;28;102327;-85
2022/05/16 03:56:28;;;;;;;1735.30;999.90;;;;;;;16.66;63.99;101371.34;5011016;28;103888;-85
2022/05/16 03:58:56;;;;;;;1692.63;999.90;;;;;;;16.66;63.72;101371.34;5013027;28;102452;-84
2022/05/16 04:01:23;;;;;;;1702.78;999.90;;;;;;;16.66;63.50;101374.94;4998564;28;102049;-84
2022/05/16 04:03:49;;;;;;;1621.70;999.90;;;;;;;16.67;64.05;101378.50;4994250;28;102091;-85
2022/05/16 04:06:16;;;;;;;1644.57;999.90;;;;;;;16.67;64.04;101375.75;4992021;28;103871;-85
2022/05/16 04:08:43;;;;;;;1630.50;999.90;;;;;;;16.68;64.26;101380.94;4993495;28;102353;-85
2022/05/16 04:11:15;;;;;;;1696.35;999.90;;;;;;;16.68;64.24;101386.44;4992644;28;102350;-85
2022/05/16 04:13:41;;;;;;;1514.13;999.90;;;;;;;16.67;63.79;101373.00;5008897;28;102029;-85
2022/05/16 04:16:08;;;;;;;1569.35;999.90;;;;;;;16.69;64.20;101381.75;5001322;28;103310;-85
2022/05/16 04:18:36;;;;;;;1630.82;999.90;;;;;;;16.68;63.91;101380.94;5001722;28;102003;-85
2022/05/16 04:21:03;;;;;;;1661.03;999.90;;;;;;;16.69;64.38;101395.47;5000683;28;102005;-85
2022/05/16 04:23:30;;;;;;;1801.93;999.90;;;;;;;16.69;63.95;101387.25;4996948;28;102231;-86
2022/05/16 04:25:59;;;;;;;1702.85;999.90;;;;;;;16.70;64.30;101394.41;5004150;28;103949;-85
2022/05/16 04:28:30;;;;;;;1861.93;999.90;;;;;;;16.70;64.46;101394.41;5005409;28;102390;-85
2022/05/16 04:30:56;;;;;;;1764.13;999.90;;;;;;;16.70;64.46;101394.41;5001456;28;102021;-83
2022/05/16 04:33:23;;;;;;;1778.00;999.90;;;;;;;16.69;64.01;101393.56;5008945;28;102487;-85
2022/05/16 04:35:49;;;;;;;1618.70;999.90;;;;;;;16.70;64.18;101388.91;5004637;28;103521;-86
2022/05/16 04:38:17;;;;;;;1674.55;999.90;;;;;;;16.71;64.03;101390.53;5005512;28;102186;-85
2022/05/16 04:43:29;;;;;;;1810.18;999.90;;;;;;;16.73;64.20;101399.28;5005520;28;101968;-85
2022/05/16 04:45:56;;;;;;;1741.83;999.90;;;;;;;16.73;64.25;101393.78;4997210;28;104029;-86
2022/05/16 04:48:22;;;;;;;1729.28;999.90;;;;;;;16.74;64.04;101395.47;5005391;28;102061;-86
2022/05/16 04:50:49;;;;;;;1798.53;999.90;;;;;;;16.75;64.04;101395.16;5018166;28;101955;-86
2022/05/16 04:53:15;;;;;;;1777.72;999.90;;;;;;;16.76;64.14;101404.22;5017388;28;102056;-85
2022/05/16 04:55:42;;;;;;;1779.13;999.90;;;;;;;16.77;63.83;101405.88;5017684;28;103074;-85
2022/05/16 04:58:10;;;;;;;1862.40;999.90;;;;;;;16.77;63.95;101405.88;5017756;28;102530;-86
2022/05/16 05:00:38;;;;;;;1748.37;999.90;;;;;;;16.78;64.14;101402.00;5014607;28;102009;-85
2022/05/16 05:03:04;;;;;;;1797.30;999.90;;;;;;;16.79;63.68;101403.63;5011054;28;102215;-85
2022/05/16 05:05:31;;;;;;;1701.53;999.90;;;;;;;16.80;63.71;101405.25;5017704;28;103905;-86
2022/05/16 05:07:57;;;;;;;1754.25;999.90;;;;;;;16.80;63.74;101399.75;5018733;28;102122;-86
2022/05/16 05:16:04;;;;;;;1773.65;999.90;;;;;;;16.85;63.67;101405.19;5016137;28;104112;-85
2022/05/16 05:18:31;;;;;;;1812.72;999.90;;;;;;;16.85;63.42;101402.44;5018181;28;101986;-86
2022/05/16 05:20:58;;;;;;;1902.35;999.90;;;;;;;16.86;63.56;101401.31;5008078;28;102748;-86
2022/05/16 05:23:25;;;;;;;1994.50;999.90;;;;;;;16.89;63.38;101408.97;5001387;28;102219;-86
2022/05/16 05:25:52;;;;;;;1831.72;999.90;;;;;;;16.90;63.36;101405.13;4995699;28;103969;-86
2022/05/16 05:28:18;;;;;;;1786.57;999.90;;;;;;;16.91;63.49;101403.16;5002470;28;102137;-86
2022/05/16 05:30:46;;;;;;;1879.65;999.90;;;;;;;16.93;63.31;101403.72;5013740;28;102634;-85
2022/05/16 05:33:13;;;;;;;1826.13;999.90;;;;;;;16.96;63.33;101414.13;5003907;28;102678;-86
2022/05/16 05:35:41;;;;;;;1968.18;999.90;;;;;;;16.96;63.56;101414.94;5013641;28;103984;-86
2022/05/16 05:38:09;;;;;;;1719.18;999.90;;;;;;;16.98;63.20;101418.19;5012666;28;101994;-85
2022/05/16 05:40:35;;;;;;;1966.88;999.90;;;;;;;16.99;63.33;101422.59;4998614;28;102720;-88
2022/05/16 05:43:04;;;;;;;1999.90;999.90;;;;;;;17.00;63.12;101418.72;5014225;28;102653;-86
2022/05/16 05:45:30;;;;;;;1955.00;999.90;;;;;;;17.04;63.18;101428.00;5006808;28;104004;-85
2022/05/16 05:47:57;;;;;;;1999.90;999.90;;;;;;;17.04;63.64;101428.00;4998507;28;102693;-85
2022/05/16 05:50:27;;;;;;;1999.90;999.90;;;;;;;17.07;63.49;101428.53;4996972;28;102563;-86
2022/05/16 05:52:53;;;;;;;1999.90;999.90;;;;;;;17.08;63.38;101424.66;4995497;28;102687;-85
2022/05/16 05:55:20;;;;;;;1998.93;999.90;;;;;;;17.09;63.53;101427.09;4998582;28;103904;-85
2022/05/16 05:57:47;;;;;;;1999.90;999.90;;;;;;;17.10;63.45;101431.50;5012800;28;102497;-85
2022/05/16 06:00:15;;;;;;;1979.18;999.90;;;;;;;17.11;63.15;101437.81;5014266;28;101889;-85
2022/05/16 06:02:42;;;;;;;1999.90;999.90;;;;;;;17.11;63.25;101433.13;5014542;28;102427;-86
2022/05/16 06:05:13;;;;;;;1999.90;999.90;;;;;;;17.12;63.16;101428.44;5012666;28;104186;-85
2022/05/16 06:07:41;;;;;;;1986.63;999.90;;;;;;;17.13;63.11;101430.91;5012809;28;102098;-86
2022/05/16 06:10:09;;;;;;;1999.90;999.90;;;;;;;17.14;62.72;101431.72;4995047;28;102402;-85
2022/05/16 06:12:35;;;;;;;1999.90;999.90;;;;;;;17.14;62.82;101426.22;4994977;28;102286;-85
2022/05/16 06:15:04;;;;;;;1999.90;999.90;;;;;;;17.15;63.35;101433.34;4998229;28;103919;-86
2022/05/16 06:17:30;;;;;;;1999.90;999.90;;;;;;;17.17;63.08;101425.63;4993846;28;102407;-85
2022/05/16 06:19:57;;;;;;;1999.90;999.90;;;;;;;17.16;63.16;101432.22;4992674;28;102629;-85
2022/05/16 06:22:23;;;;;;;1999.90;999.90;;;;;;;17.17;63.10;101420.13;4994435;28;102028;-85
2022/05/16 06:27:36;;;;;;;1999.90;999.90;;;;;;;17.19;62.92;101420.63;5004767;28;102419;-86
2022/05/16 06:30:03;;;;;;;1999.90;999.90;;;;;;;17.22;63.39;101428.28;5005832;28;102626;-85
2022/05/16 06:32:29;;;;;;;1999.90;999.90;;;;;;;17.25;62.89;101422.19;5010619;28;102227;-86
2022/05/16 06:34:56;;;;;;;1999.90;999.90;;;;;;;17.27;62.99;101434.53;5011719;28;104244;-85
2022/05/16 06:37:22;;;;;;;1999.90;999.90;;;;;;;17.29;63.06;101434.25;5006471;28;102410;-86
2022/05/16 06:39:49;;;;;;;1999.90;999.90;;;;;;;17.32;62.93;101427.31;5008172;28;102217;-85
2022/05/16 06:42:17;;;;;;;1999.90;999.90;;;;;;;17.33;63.29;101434.44;5006155;28;102894;-85
2022/05/16 06:44:44;;;;;;;1999.90;999.90;;;;;;;17.35;63.07;101438.56;4998654;28;103991;-86
2022/05/16 06:47:11;;;;;;;1999.90;999.90;;;;;;;17.36;62.95;101436.63;5012903;28;102070;-85
2022/05/16 06:49:37;;;;;;;1999.90;999.90;;;;;;;17.37;62.84;101435.47;5008800;28;102726;-86
2022/05/16 06:55:28;;;;;;;1999.90;999.90;;;;;;;17.37;63.20;101441.00;4997696;28;103882;-85
2022/05/16 06:57:56;;;;;;;1999.90;999.90;;;;;;;17.37;62.56;101439.06;5003794;28;103001;-85
2022/05/16 07:00:24;;;;;;;1999.90;999.90;;;;;;;17.39;62.88;101438.78;4999489;28;102506;-86
2022/05/16 07:02:50;;;;;;;1999.90;999.90;;;;;;;17.39;62.93;101436.03;5012703;28;102077;-86
2022/05/16 07:05:17;;;;;;;1999.90;999.90;;;;;;;17.39;62.70;101434.06;4994837;28;104308;-85
2022/05/16 07:07:44;;;;;;;1999.90;999.90;;;;;;;17.39;62.56;101436.84;5012028;28;102148;-85
2022/05/16 07:10:11;;;;;;;1999.90;999.90;;;;;;;17.39;62.93;101436.84;5008779;28;102158;-86
2022/05/16 07:12:38;;;;;;;1999.90;999.90;;;;;;;17.39;62.51;101433.28;5011435;28;102245;-86
2022/05/16 07:15:07;;;;;;;1999.90;999.90;;;;;;;17.40;62.71;101432.94;5010559;28;103976;-85
2022/05/16 07:17:36;;;;;;;;;;;;;;;17.40;62.89;101435.72;5011819;28;102498;-86
2022/05/16 07:20:03;;;;;;;1987.38;999.90;;;;;;;17.41;62.50;101437.34;5001513;28;102439;-86
2022/05/16 07:22:29;;;;;;;1999.90;999.90;;;;;;;17.42;62.33;101436.22;5012309;28;102505;-86
2022/05/16 07:24:57;;;;;;;1999.90;999.90;;;;;;;17.42;62.92;101422.47;5009298;28;103967;-87
2022/05/16 07:30:12;;;;;;;1999.90;999.90;;;;;;;17.43;62.36;101437.06;5005987;28;103654;-88
2022/05/16 07:32:42;;;;;;;1999.90;999.90;;;;;;;17.42;62.25;101439.00;5006641;28;102102;-88
2022/05/16 07:35:10;;;;;;;1999.90;999.90;;;;;;;17.43;62.48;101435.09;5012326;28;104006;-89
2022/05/16 07:37:37;;;;;;;;;;;;;;;17.43;62.53;101440.63;4998932;28;102173;-89
2022/05/16 07:40:07;;;;;;;1999.90;999.90;;;;;;;17.42;62.69;101436.22;5009737;28;102465;-88
2022/05/16 07:42:34;;;;;;;1982.60;999.90;;;;;;;17.43;62.78;101439.81;5006511;28;102323;-88
2022/05/16 07:45:02;;;;;;;1999.90;999.90;;;;;;;17.43;62.30;101429.59;5009212;28;103835;-88
2022/05/16 07:47:31;;;;;;;1999.90;999.90;;;;;;;17.43;62.55;101439.81;5007446;28;102037;-88
2022/05/16 07:49:58;;;;;;;1999.90;999.90;;;;;;;17.43;62.57;101446.13;5003985;28;102796;-87
2022/05/16 07:52:25;;;;;;;1999.90;999.90;;;;;;;17.42;62.22;101441.75;5013562;28;102191;-88
2022/05/16 07:54:53;;;;;;;1999.90;999.90;;;;;;;17.41;62.48;101445.59;5012087;28;103961;-88
2022/05/16 07:57:20;;;;;;;1999.90;999.90;;;;;;;17.42;62.60;101451.94;5008465;28;102161;-89
2022/05/16 07:59:47;;;;;;;1999.90;999.90;;;;;;;17.41;62.00;101442.84;4996995;28;102439;-88
2022/05/16 08:02:13;;;;;;;1999.90;999.90;;;;;;;17.43;62.31;101445.31;4993972;28;102501;-88
2022/05/16 08:04:41;;;;;;;1999.90;999.90;;;;;;;17.42;62.16;101444.50;4994896;28;103833;-88
2022/05/16 08:07:08;;;;;;;1999.90;999.90;;;;;;;17.42;62.15;101447.25;5005829;28;102135;-88
2022/05/16 08:12:24;;;;;;;1999.90;999.90;;;;;;;17.42;62.47;101450.00;5000558;28;101976;-88
2022/05/16 08:14:50;;;;;;;1999.90;999.90;;;;;;;17.41;62.51;101453.84;5010952;28;103901;-88
2022/05/16 08:17:17;;;;;;;1999.90;999.90;;;;;;;17.41;62.40;101448.34;5017601;28;102310;-88
2022/05/16 08:19:45;;;;;;;1999.90;999.90;;;;;;;17.42;62.29;101446.44;5014137;28;102694;-88
2022/05/16 08:22:11;;;;;;;1999.90;999.90;;;;;;;17.42;62.64;101447.25;5006602;28;102254;-88
2022/05/16 08:24:38;;;;;;;1999.90;999.90;;;;;;;17.42;62.47;101439.00;4997923;28;103908;-88
2022/05/16 08:27:07;;;;;;;1999.90;999.90;;;;;;;17.40;62.26;101434.91;5015068;28;102285;-88
2022/05/16 08:29:34;;;;;;;1999.90;999.90;;;;;;;17.42;62.20;101433.50;5014369;28;102329;-87
2022/05/16 08:32:03;;;;;;;1999.90;999.90;;;;;;;17.40;62.27;101437.66;5010181;28;102614;-88
2022/05/16 08:34:30;;;;;;;1999.90;999.90;;;;;;;17.42;62.13;101435.44;5006009;28;103024;-88
2022/05/16 08:39:52;;;;;;;1999.90;999.90;;;;;;;17.40;62.27;101427.44;4996350;28;102343;-89
2022/05/16 08:42:23;;;;;;;1999.90;999.90;;;;;;;17.39;62.27;101434.06;4997608;28;101993;-88
2022/05/16 08:44:57;;;;;;;1999.90;999.90;;;;;;;17.39;62.35;101434.06;5008925;28;104215;-88
2022/05/16 08:47:40;;;;;;;1999.90;999.90;;;;;;;17.39;61.82;101431.31;5005682;28;103705;-88
2022/05/16 08:50:13;;;;;;;1999.90;999.90;;;;;;;17.40;61.85;101423.88;5005776;28;102969;-87
2022/05/16 08:52:47;;;;;;;1999.90;999.90;;;;;;;17.40;61.86;101432.13;5004921;28;102372;-88
2022/05/16 08:55:26;;;;;;;1999.90;999.90;;;;;;;17.39;61.47;101434.06;5011082;28;103422;-88
2022/05/16 08:58:00;;;;;;;1999.90;999.90;;;;;;;17.42;61.79;101422.47;5016602;28;102455;-95
2022/05/16 09:01:59;;;;;;;30.90;2.47;;;;;;;18.17;56.53;101415.91;5090071;27;102296;-47
2022/05/16 09:04:30;;;;;;;9.02;1.80;;;;;;;17.82;58.46;101420.16;5071872;27;102438;-48
2022/05/16 09:07:01;;;;;;;4.95;1.77;;;;;;;17.68;59.53;101416.53;5068487;27;104129;-47
2022/05/16 09:09:39;;;;;;;5.75;1.50;;;;;;;17.60;60.51;101411.69;5062616;27;102441;-46
2022/05/16 09:12:11;;;;;;;5.32;1.70;;;;;;;17.57;61.10;101412.34;5064752;27;102132;-47
2022/05/16 09:14:55;;;;;;;2.75;1.60;;;;;;;17.52;61.02;101416.78;5070567;27;102079;-48
2022/05/16 09:17:34;;;;;;;7.55;1.90;;;;;;;17.51;61.27;101409.66;5069217;27;103847;-47
2022/05/16 09:20:10;;;;;;;7.03;1.95;;;;;;;17.49;60.89;101414.66;5065945;27;102599;-47
2022/05/16 09:22:42;;;;;;;3.25;1.77;;;;;;;17.49;61.67;101402.81;5059947;27;102233;-48
2022/05/16 09:25:13;;;;;;;3.03;1.90;;;;;;;17.48;61.34;101406.69;5068742;27;102512;-48
2022/05/16 09:30:30;;;;;;;4.35;2.20;;;;;;;17.46;61.26;101407.00;5068829;27;102337;-50
2022/05/16 09:33:04;;;;;;;1.52;1.38;;;;;;;17.44;61.50;101398.22;5066735;27;102548;-50
2022/05/16 09:35:41;;;;;;;2.35;1.60;;;;;;;17.44;61.43;101400.97;5070185;27;102264;-48
2022/05/16 09:38:08;;;;;;;4.60;1.95;;;;;;;17.43;61.60;101398.53;5068206;27;104115;-48
2022/05/16 09:40:38;;;;;;;4.28;1.75;;;;;;;17.43;61.65;101385.59;5066552;27;102662;-47
2022/05/16 09:43:07;;;;;;;1.73;1.60;;;;;;;17.43;61.45;101401.28;5064184;27;104062;-48
2022/05/16 09:45:35;;;;;;;2.03;1.50;;;;;;;17.41;61.27;101389.75;5064615;27;102278;-47
2022/05/16 09:48:15;;;;;;;2.95;1.60;;;;;;;17.42;61.72;101394.16;5066769;27;104108;-51
2022/05/16 09:50:41;;;;;;;3.38;1.83;;;;;;;17.41;62.10;101404.31;5066904;27;102376;-49
2022/05/16 09:53:13;;;;;;;1.60;1.48;;;;;;;17.40;61.71;101391.69;5058976;27;103577;-48
2022/05/16 09:55:46;;;;;;;4.32;1.77;;;;;;;17.41;61.52;101387.81;5058533;27;102406;-47
2022/05/16 09:58:16;;;;;;;2.20;1.40;;;;;;;17.39;61.46;101384.56;5049590;27;103879;-49
2022/05/16 10:00:45;;;;;;;2.90;1.70;;;;;;;17.38;61.64;101385.69;5062950;27;101985;-49
2022/05/16 10:03:27;;;;;;;2.03;1.75;;;;;;;17.37;61.68;101380.47;5067282;27;102003;-48
2022/05/16 10:05:54;;;;;;;2.65;1.83;;;;;;;17.38;61.78;101376.59;5069024;27;102197;-51
2022/05/16 10:08:25;;;;;;;2.22;1.67;;;;;;;17.35;61.92;101383.53;5061220;27;103944;-49
2022/05/16 10:10:53;;;;;;;5.70;1.60;;;;;;;17.36;61.57;101376.91;5061634;27;102277;-47
2022/05/16 10:13:20;;;;;;;1.60;1.50;;;;;;;17.35;61.90;101372.53;5053162;27;102022;-47
2022/05/16 10:15:49;;;;;;;4.38;1.70;;;;;;;17.35;62.01;101369.78;5053497;27;102463;-47
2022/05/16 10:18:19;;;;;;;2.83;1.35;;;;;;;17.32;61.83;101370.38;5053613;27;103993;-47
2022/05/16 10:20:53;;;;;;;2.15;1.50;;;;;;;17.32;62.13;101351.09;5051217;27;102439;-47
2022/05/16 10:23:23;;;;;;;3.10;1.50;;;;;;;17.31;62.13;101360.50;5051278;27;102253;-46
2022/05/16 10:25:54;;;;;;;2.05;1.70;;;;;;;17.32;62.35;101344.78;5054490;27;102430;-47
2022/05/16 10:28:28;;;;;;;1.30;1.20;;;;;;;17.32;62.04;101351.09;5047849;27;103969;-47
2022/05/16 10:33:45;;;;;;;3.00;1.42;;;;;;;17.30;62.63;101339.56;5053650;27;102467;-49
2022/05/16 10:36:23;;;;;;;1.80;1.40;;;;;;;17.28;62.12;101345.41;5053448;27;101980;-50
2022/05/16 10:39:01;;;;;;;1.70;1.60;;;;;;;17.28;62.19;101339.09;5044258;27;104599;-48
2022/05/16 10:41:32;;;;;;;2.35;1.60;;;;;;;17.28;62.01;101336.31;5051982;27;102838;-47
2022/05/16 10:44:08;;;;;;;2.30;1.50;;;;;;;17.28;62.36;101333.56;5049880;27;102403;-48
2022/05/16 10:46:38;;;;;;;2.15;1.58;;;;;;;17.29;62.36;101338.75;5050631;27;103133;-49
2022/05/16 10:49:09;;;;;;;2.03;1.50;;;;;;;17.31;62.50;101338.47;5048154;27;104108;-49
2022/05/16 10:51:49;;;;;;;2.22;1.70;;;;;;;17.31;62.47;101327.47;5052504;27;102184;-47
2022/05/16 10:54:18;;;;;;;2.33;1.70;;;;;;;17.31;62.63;101332.97;5053342;27;101767;-47
2022/05/16 10:57:15;;;;;;;2.40;1.60;;;;;;;17.31;62.89;101338.47;5052569;27;102763;-48
2022/05/16 11:00:06;;;;;;;3.80;1.65;;;;;;;17.28;62.62;101333.56;5036809;27;104134;-46
2022/05/16 11:03:15;;;;;;;4.43;1.60;;;;;;;17.29;62.44;101330.50;5035759;27;102456;-47
2022/05/16 11:05:56;;;;;;;1.90;1.50;;;;;;;17.29;62.72;101318.69;5053645;27;102197;-47
2022/05/16 11:08:34;;;;;;;3.38;1.65;;;;;;;17.29;62.88;101321.44;5053888;27;102350;-47
2022/05/16 11:11:07;;;;;;;1.83;1.52;;;;;;;17.28;62.39;101328.06;5037894;27;104145;-50
2022/05/16 11:13:42;;;;;;;3.60;1.65;;;;;;;17.27;63.08;101323.66;5053707;27;102068;-49
2022/05/16 11:16:12;;;;;;;3.17;1.67;;;;;;;17.27;62.94;101320.91;5047302;27;102195;-47
2022/05/16 11:18:49;;;;;;;1.92;1.33;;;;;;;17.28;62.80;101322.56;5033858;28;102316;-48
2022/05/16 11:21:29;;;;;;;2.90;1.50;;;;;;;17.28;62.68;101328.06;5032862;28;103821;-47
2022/05/16 11:24:07;;;;;;;1.58;1.48;;;;;;;17.28;62.95;101322.56;5039341;27;103144;-47
2022/05/16 11:26:42;;;;;;;3.17;1.67;;;;;;;17.27;62.40;101326.41;5039782;27;102173;-47
2022/05/16 11:29:18;;;;;;;1.88;1.60;;;;;;;17.26;62.79;101316.53;5041882;27;102147;-46
2022/05/16 11:31:55;;;;;;;3.33;1.70;;;;;;;17.26;62.79;101319.28;5033890;27;103921;-47
2022/05/16 11:34:28;;;;;;;1.70;1.60;;;;;;;17.24;62.93;101319.59;5046631;27;102355;-47
2022/05/16 11:37:02;;;;;;;3.30;1.45;;;;;;;17.26;62.54;101311.03;5057910;27;102260;-49
2022/05/16 11:39:37;;;;;;;1.70;1.52;;;;;;;17.25;62.65;101301.97;5045669;27;102592;-48